Time;durP1;ratioP1;P1;durP2;ratioP2;P2;SDS_P1;SDS_P2;PMS_P1;PMS_P2;Temp;Humidity;BMP_temperature;BMP_pressure;BME280_temperature;BME280_humidity;BME280_pressure;Samples;Min_cycle;Max_cycle;Signal;HPM_P1;HPM_P2
2021/10/22 00:00:11;;;;;;;15.97;14.30;;;;;;;;;;4937064;29;20265;-84
2021/10/22 00:02:39;;;;;;;15.83;14.10;;;;;;;;;;4937398;29;20210;-84
2021/10/22 00:05:09;;;;;;;15.67;14.17;;;;;;;;;;4937094;29;20268;-84
2021/10/22 00:07:36;;;;;;;16.63;14.77;;;;;;;;;;4937379;29;20207;-85
2021/10/22 00:10:05;;;;;;;16.80;14.30;;;;;;;;;;4936379;29;20226;-85
2021/10/22 00:12:32;;;;;;;14.83;13.43;;;;;;;;;;4937544;29;20297;-85
2021/10/22 00:15:00;;;;;;;15.17;13.60;;;;;;;;;;4936988;29;20198;-85
2021/10/22 00:17:27;;;;;;;14.97;13.43;;;;;;;;;;4937197;29;20207;-85
2021/10/22 00:19:55;;;;;;;14.53;13.13;;;;;;;;;;4936749;29;20694;-85
2021/10/22 00:22:24;;;;;;;15.43;13.67;;;;;;;;;;4937232;29;20198;-85
2021/10/22 00:24:51;;;;;;;16.33;14.83;;;;;;;;;;4936734;29;20234;-85
2021/10/22 00:27:18;;;;;;;15.43;13.93;;;;;;;;;;4936989;29;20591;-84
2021/10/22 00:29:45;;;;;;;17.23;15.67;;;;;;;;;;4936348;29;20238;-84
2021/10/22 00:32:13;;;;;;;17.57;15.80;;;;;;;;;;4937161;29;20234;-84
2021/10/22 00:34:40;;;;;;;17.03;15.33;;;;;;;;;;4936621;29;20233;-84
2021/10/22 00:37:07;;;;;;;16.47;14.67;;;;;;;;;;4936637;29;20691;-84
2021/10/22 00:39:36;;;;;;;15.90;14.30;;;;;;;;;;4936816;29;20254;-84
2021/10/22 00:42:04;;;;;;;15.13;13.53;;;;;;;;;;4936595;29;20206;-84
2021/10/22 00:44:32;;;;;;;16.43;14.83;;;;;;;;;;4936635;29;20257;-84
2021/10/22 00:46:59;;;;;;;17.83;16.00;;;;;;;;;;4936594;29;20203;-85
2021/10/22 00:49:27;;;;;;;16.73;14.60;;;;;;;;;;4936174;29;20199;-84
2021/10/22 00:51:55;;;;;;;16.03;14.43;;;;;;;;;;4936540;29;20213;-84
2021/10/22 00:54:22;;;;;;;15.97;14.47;;;;;;;;;;4936666;29;20234;-84
2021/10/22 00:56:51;;;;;;;16.27;14.17;;;;;;;;;;4936533;29;20294;-84
2021/10/22 00:59:19;;;;;;;16.23;14.67;;;;;;;;;;4936091;29;20293;-84
2021/10/22 01:01:46;;;;;;;16.30;14.70;;;;;;;;;;4936705;29;20254;-85
2021/10/22 01:04:13;;;;;;;14.90;13.37;;;;;;;;;;4936153;29;20321;-85
2021/10/22 01:06:41;;;;;;;16.23;14.67;;;;;;;;;;4936157;29;20285;-84
2021/10/22 01:09:09;;;;;;;14.83;13.30;;;;;;;;;;4936057;29;20199;-84
2021/10/22 01:11:37;;;;;;;14.87;13.57;;;;;;;;;;4936078;29;20294;-84
2021/10/22 01:14:07;;;;;;;14.37;13.07;;;;;;;;;;4936271;29;20636;-84
2021/10/22 01:16:37;;;;;;;16.83;15.03;;;;;;;;;;4936086;29;20261;-84
2021/10/22 01:19:04;;;;;;;16.00;14.47;;;;;;;;;;4935894;29;20193;-84
2021/10/22 01:21:34;;;;;;;14.97;13.57;;;;;;;;;;4935978;29;20202;-84
2021/10/22 01:24:01;;;;;;;16.40;14.70;;;;;;;;;;4936041;29;20265;-84
2021/10/22 01:26:30;;;;;;;17.10;13.10;;;;;;;;;;4935929;29;20275;-84
2021/10/22 01:28:59;;;;;;;14.83;13.20;;;;;;;;;;4935471;29;20209;-84
2021/10/22 01:31:26;;;;;;;16.33;14.73;;;;;;;;;;4935751;29;20187;-84
2021/10/22 01:33:54;;;;;;;15.97;14.40;;;;;;;;;;4935644;29;20664;-83
2021/10/22 01:36:23;;;;;;;15.30;13.90;;;;;;;;;;4935814;29;20229;-84
2021/10/22 01:38:51;;;;;;;15.43;13.80;;;;;;;;;;4935580;29;20210;-84
2021/10/22 01:41:19;;;;;;;13.03;11.83;;;;;;;;;;4935581;29;20744;-84
2021/10/22 01:43:47;;;;;;;14.83;13.33;;;;;;;;;;4935432;29;20614;-83
2021/10/22 01:46:14;;;;;;;13.30;12.00;;;;;;;;;;4935708;29;20214;-84
2021/10/22 01:48:42;;;;;;;14.57;13.07;;;;;;;;;;4935679;29;20618;-84
2021/10/22 01:51:09;;;;;;;15.17;13.77;;;;;;;;;;4935636;29;20203;-84
2021/10/22 01:53:37;;;;;;;15.03;13.53;;;;;;;;;;4937487;29;20669;-84
2021/10/22 01:56:06;;;;;;;15.27;13.70;;;;;;;;;;4943666;29;20654;-84
2021/10/22 01:58:33;;;;;;;15.73;14.20;;;;;;;;;;4952043;29;20206;-83
2021/10/22 02:01:01;;;;;;;16.13;14.43;;;;;;;;;;4951676;29;20671;-85
2021/10/22 02:03:28;;;;;;;18.07;14.63;;;;;;;;;;4954614;29;20573;-83
2021/10/22 02:05:55;;;;;;;15.13;13.63;;;;;;;;;;4952592;29;20202;-84
2021/10/22 02:08:23;;;;;;;15.70;14.10;;;;;;;;;;4954368;29;20288;-84
2021/10/22 02:10:50;;;;;;;14.80;13.40;;;;;;;;;;4943535;29;20210;-84
2021/10/22 02:13:18;;;;;;;14.27;12.93;;;;;;;;;;4942642;29;20694;-84
2021/10/22 02:15:46;;;;;;;14.13;12.80;;;;;;;;;;4939135;29;20742;-84
2021/10/22 02:18:13;;;;;;;13.87;12.27;;;;;;;;;;4942528;29;20210;-84
2021/10/22 02:20:40;;;;;;;14.90;13.40;;;;;;;;;;4954368;29;20201;-84
2021/10/22 02:23:07;;;;;;;14.57;13.10;;;;;;;;;;4953899;29;20197;-84
2021/10/22 02:25:35;;;;;;;15.10;13.53;;;;;;;;;;4947791;29;20230;-84
2021/10/22 02:28:02;;;;;;;13.93;12.60;;;;;;;;;;4954096;29;20213;-84
2021/10/22 02:30:31;;;;;;;14.63;13.23;;;;;;;;;;4953689;29;20237;-84
2021/10/22 02:32:58;;;;;;;15.40;13.80;;;;;;;;;;4952929;28;20209;-84
2021/10/22 02:35:25;;;;;;;18.50;16.50;;;;;;;;;;4954044;29;20197;-84
2021/10/22 02:37:53;;;;;;;17.90;15.83;;;;;;;;;;4948554;29;20202;-84
2021/10/22 02:40:20;;;;;;;17.30;15.27;;;;;;;;;;4953467;29;20245;-84
2021/10/22 02:42:51;;;;;;;21.10;17.40;;;;;;;;;;4953808;29;20738;-84
2021/10/22 02:45:19;;;;;;;18.07;16.20;;;;;;;;;;4953666;29;20304;-84
2021/10/22 02:47:48;;;;;;;14.43;13.03;;;;;;;;;;4953693;29;20635;-84
2021/10/22 02:50:17;;;;;;;15.27;13.77;;;;;;;;;;4953457;29;20201;-84
2021/10/22 02:52:44;;;;;;;14.03;12.77;;;;;;;;;;4953741;29;20694;-84
2021/10/22 02:55:11;;;;;;;15.33;13.67;;;;;;;;;;4953739;29;20257;-85
2021/10/22 02:57:39;;;;;;;13.87;12.53;;;;;;;;;;4954077;29;20308;-85
2021/10/22 03:00:08;;;;;;;15.97;13.60;;;;;;;;;;4953512;29;20197;-85
2021/10/22 03:02:35;;;;;;;15.60;13.93;;;;;;;;;;4953703;29;20244;-85
2021/10/22 03:05:04;;;;;;;15.13;13.73;;;;;;;;;;4953505;29;20229;-85
2021/10/22 03:07:31;;;;;;;14.37;12.93;;;;;;;;;;4952399;29;20207;-85
2021/10/22 03:09:59;;;;;;;15.83;14.13;;;;;;;;;;4952941;29;20241;-84
2021/10/22 03:12:26;;;;;;;15.50;13.93;;;;;;;;;;4952707;29;20708;-84
2021/10/22 03:14:54;;;;;;;14.40;12.70;;;;;;;;;;4952511;29;20201;-84
2021/10/22 03:17:21;;;;;;;14.53;12.87;;;;;;;;;;4952498;29;20321;-84
2021/10/22 03:19:48;;;;;;;14.57;13.23;;;;;;;;;;4952152;29;20288;-84
2021/10/22 03:22:17;;;;;;;14.60;13.20;;;;;;;;;;4952976;29;20284;-83
2021/10/22 03:24:44;;;;;;;14.63;13.10;;;;;;;;;;4952691;29;20248;-83
2021/10/22 03:27:14;;;;;;;61.67;48.50;;;;;;;;;;4952384;29;20292;-84
2021/10/22 03:29:42;;;;;;;36.10;30.90;;;;;;;;;;4952497;29;20234;-84
2021/10/22 03:32:10;;;;;;;44.10;30.60;;;;;;;;;;4952147;29;20268;-84
2021/10/22 03:34:37;;;;;;;116.27;84.83;;;;;;;;;;4952348;29;20194;-84
2021/10/22 03:37:05;;;;;;;27.03;20.23;;;;;;;;;;4952251;29;20252;-84
2021/10/22 03:39:33;;;;;;;19.30;16.10;;;;;;;;;;4952194;29;20201;-83
2021/10/22 03:42:01;;;;;;;16.47;14.83;;;;;;;;;;4952425;29;20206;-84
2021/10/22 03:44:28;;;;;;;14.40;13.00;;;;;;;;;;4954277;28;20247;-84
2021/10/22 03:46:56;;;;;;;14.37;12.83;;;;;;;;;;4955644;29;20198;-84
2021/10/22 03:49:23;;;;;;;16.97;13.70;;;;;;;;;;4955584;29;20206;-85
2021/10/22 03:51:51;;;;;;;14.40;12.90;;;;;;;;;;4953231;29;20289;-86
2021/10/22 03:54:18;;;;;;;15.20;13.60;;;;;;;;;;4956661;29;20591;-87
2021/10/22 03:56:47;;;;;;;16.40;14.30;;;;;;;;;;4956761;29;20240;-86
2021/10/22 03:59:16;;;;;;;17.07;14.03;;;;;;;;;;4956218;29;20587;-85
2021/10/22 04:01:43;;;;;;;15.23;13.70;;;;;;;;;;4956132;29;20216;-85
2021/10/22 04:04:11;;;;;;;16.33;14.73;;;;;;;;;;4955464;29;20197;-86
2021/10/22 04:06:38;;;;;;;19.10;17.20;;;;;;;;;;4956105;29;20274;-84
2021/10/22 04:09:05;;;;;;;25.93;23.13;;;;;;;;;;4955788;29;20201;-86
2021/10/22 04:11:32;;;;;;;30.27;27.10;;;;;;;;;;4955756;29;20280;-85
2021/10/22 04:14:02;;;;;;;19.80;17.70;;;;;;;;;;4955728;29;20201;-86
2021/10/22 04:16:29;;;;;;;17.50;15.67;;;;;;;;;;4955455;29;20202;-85
2021/10/22 04:18:56;;;;;;;17.90;16.00;;;;;;;;;;4955905;29;20212;-85
2021/10/22 04:21:24;;;;;;;18.97;17.03;;;;;;;;;;4956048;29;20305;-85
2021/10/22 04:23:51;;;;;;;17.40;13.97;;;;;;;;;;4955682;29;20257;-87
2021/10/22 04:26:18;;;;;;;15.40;13.77;;;;;;;;;;4955470;29;20221;-85
2021/10/22 04:28:45;;;;;;;14.03;12.63;;;;;;;;;;4955028;28;20285;-86
2021/10/22 04:31:14;;;;;;;15.20;13.80;;;;;;;;;;4955878;29;20281;-85
2021/10/22 04:33:41;;;;;;;14.20;12.90;;;;;;;;;;4955339;29;20208;-86
2021/10/22 04:36:12;;;;;;;15.23;13.73;;;;;;;;;;4955865;29;20198;-86
2021/10/22 04:41:24;;;;;;;15.97;14.47;;;;;;;;;;4955933;29;20193;-87
2021/10/22 04:43:51;;;;;;;15.43;13.90;;;;;;;;;;4955801;29;20705;-87
2021/10/22 04:46:20;;;;;;;13.93;12.43;;;;;;;;;;4956096;29;20288;-87
2021/10/22 04:48:48;;;;;;;14.20;12.70;;;;;;;;;;4955945;29;20666;-86
2021/10/22 04:51:15;;;;;;;52.17;35.27;;;;;;;;;;4954684;29;20206;-87
2021/10/22 04:53:43;;;;;;;53.23;33.63;;;;;;;;;;4952172;29;20638;-86
2021/10/22 04:56:10;;;;;;;24.07;20.13;;;;;;;;;;4955257;29;20197;-87
2021/10/22 04:58:39;;;;;;;16.90;15.00;;;;;;;;;;4955303;29;20261;-86
2021/10/22 05:01:06;;;;;;;17.00;13.90;;;;;;;;;;4956079;29;20737;-87
2021/10/22 05:03:35;;;;;;;14.20;12.90;;;;;;;;;;4955757;29;20216;-86
2021/10/22 05:06:02;;;;;;;13.77;12.47;;;;;;;;;;4955790;29;20229;-86
2021/10/22 05:08:30;;;;;;;12.90;11.70;;;;;;;;;;4955743;29;20205;-86
2021/10/22 05:10:57;;;;;;;13.67;12.47;;;;;;;;;;4955780;29;20664;-87
2021/10/22 05:13:24;;;;;;;13.17;11.80;;;;;;;;;;4955872;29;20650;-87
2021/10/22 05:15:52;;;;;;;13.53;11.63;;;;;;;;;;4955776;29;20570;-86
2021/10/22 05:18:19;;;;;;;11.90;10.80;;;;;;;;;;4955387;29;20194;-86
2021/10/22 05:20:48;;;;;;;14.03;12.60;;;;;;;;;;4955594;29;20666;-86
2021/10/22 05:23:16;;;;;;;12.93;11.57;;;;;;;;;;4955463;29;20674;-86
2021/10/22 05:25:44;;;;;;;15.50;13.87;;;;;;;;;;4955213;29;20222;-86
2021/10/22 05:28:11;;;;;;;19.77;17.77;;;;;;;;;;4955304;29;20296;-86
2021/10/22 05:30:39;;;;;;;20.50;18.47;;;;;;;;;;4955169;29;20237;-86
2021/10/22 05:33:07;;;;;;;26.43;22.23;;;;;;;;;;4955310;29;20265;-87
2021/10/22 05:35:34;;;;;;;20.17;18.03;;;;;;;;;;4955205;29;20209;-86
2021/10/22 05:38:04;;;;;;;19.23;16.67;;;;;;;;;;4955145;29;20261;-87
2021/10/22 05:40:32;;;;;;;28.67;23.27;;;;;;;;;;4955047;29;20197;-86
2021/10/22 05:42:59;;;;;;;26.13;22.07;;;;;;;;;;4955118;29;20664;-86
2021/10/22 05:45:27;;;;;;;33.87;27.70;;;;;;;;;;4954909;29;20225;-86
2021/10/22 05:47:54;;;;;;;45.70;35.13;;;;;;;;;;4954902;29;20701;-86
2021/10/22 05:50:21;;;;;;;32.53;28.60;;;;;;;;;;4954816;29;20252;-86
2021/10/22 05:52:49;;;;;;;24.87;22.20;;;;;;;;;;4954944;29;20194;-86
2021/10/22 05:55:18;;;;;;;24.63;21.50;;;;;;;;;;4954833;29;20194;-87
2021/10/22 05:57:45;;;;;;;48.53;42.93;;;;;;;;;;4954974;29;20209;-87
2021/10/22 06:00:14;;;;;;;35.50;30.60;;;;;;;;;;4954775;29;20260;-87
2021/10/22 06:02:41;;;;;;;27.97;24.97;;;;;;;;;;4954768;29;20201;-87
2021/10/22 06:05:10;;;;;;;29.27;23.57;;;;;;;;;;4954490;29;20230;-86
2021/10/22 06:07:37;;;;;;;22.00;18.53;;;;;;;;;;4953762;28;20205;-86
2021/10/22 06:10:06;;;;;;;24.87;19.90;;;;;;;;;;4954409;29;20202;-87
2021/10/22 06:12:35;;;;;;;20.23;18.13;;;;;;;;;;4954518;29;20202;-87
2021/10/22 06:15:03;;;;;;;18.43;16.53;;;;;;;;;;4954543;29;20198;-86
2021/10/22 06:17:31;;;;;;;17.63;15.83;;;;;;;;;;4954498;29;20223;-87
2021/10/22 06:20:06;;;;;;;16.17;14.23;;;;;;;;;;4954445;29;20261;-87
2021/10/22 06:22:50;;;;;;;19.57;16.30;;;;;;;;;;4955038;29;20198;-87
2021/10/22 06:25:17;;;;;;;15.30;13.67;;;;;;;;;;4954327;29;20686;-87
2021/10/22 06:27:49;;;;;;;16.33;14.63;;;;;;;;;;4954283;29;20206;-86
2021/10/22 06:30:17;;;;;;;17.07;15.33;;;;;;;;;;4954244;28;20230;-87
2021/10/22 06:32:44;;;;;;;17.57;15.43;;;;;;;;;;4954262;29;20213;-87
2021/10/22 06:35:12;;;;;;;17.00;15.20;;;;;;;;;;4954211;29;20237;-86
2021/10/22 06:37:39;;;;;;;16.97;15.23;;;;;;;;;;4954133;29;20209;-87
2021/10/22 06:40:08;;;;;;;18.73;16.93;;;;;;;;;;4954307;29;20264;-86
2021/10/22 06:42:35;;;;;;;22.47;19.47;;;;;;;;;;4953572;29;20242;-86
2021/10/22 06:45:05;;;;;;;21.23;18.50;;;;;;;;;;4953787;29;20582;-86
2021/10/22 06:47:32;;;;;;;18.13;16.27;;;;;;;;;;4954092;29;20201;-86
2021/10/22 06:49:59;;;;;;;20.30;16.93;;;;;;;;;;4954198;29;20664;-86
2021/10/22 06:52:26;;;;;;;17.50;15.73;;;;;;;;;;4954233;29;20202;-86
2021/10/22 06:54:55;;;;;;;15.53;14.03;;;;;;;;;;4954005;29;20628;-86
2021/10/22 06:57:22;;;;;;;15.57;14.13;;;;;;;;;;4954063;29;20213;-85
2021/10/22 06:59:49;;;;;;;16.97;15.40;;;;;;;;;;4953893;29;20198;-86
2021/10/22 07:02:18;;;;;;;16.67;15.07;;;;;;;;;;4954093;29;20202;-85
2021/10/22 07:04:50;;;;;;;17.10;15.23;;;;;;;;;;4953770;29;20202;-85
2021/10/22 07:07:17;;;;;;;17.70;14.10;;;;;;;;;;4953788;29;20210;-86
2021/10/22 07:09:46;;;;;;;15.93;14.43;;;;;;;;;;4953686;29;20209;-86
2021/10/22 07:12:14;;;;;;;15.83;13.73;;;;;;;;;;4953608;29;20202;-86
2021/10/22 07:14:48;;;;;;;17.50;14.47;;;;;;;;;;4953681;29;20747;-86
2021/10/22 07:17:16;;;;;;;15.90;13.83;;;;;;;;;;4954028;28;20196;-86
2021/10/22 07:19:45;;;;;;;15.00;13.43;;;;;;;;;;4957851;29;20206;-86
2021/10/22 07:22:14;;;;;;;15.13;12.37;;;;;;;;;;4957662;29;20603;-86
2021/10/22 07:24:42;;;;;;;13.03;11.73;;;;;;;;;;4957607;29;20580;-86
2021/10/22 07:27:10;;;;;;;13.50;11.93;;;;;;;;;;4957670;29;20324;-86
2021/10/22 07:29:37;;;;;;;12.80;11.53;;;;;;;;;;4957169;28;20275;-86
2021/10/22 07:32:05;;;;;;;15.27;12.23;;;;;;;;;;4957432;29;20692;-85
2021/10/22 07:34:32;;;;;;;15.77;12.83;;;;;;;;;;4957146;29;20264;-86
2021/10/22 07:37:01;;;;;;;14.27;12.70;;;;;;;;;;4957604;29;20289;-86
2021/10/22 07:39:28;;;;;;;12.90;11.80;;;;;;;;;;4957488;29;20655;-85
2021/10/22 07:41:56;;;;;;;17.83;12.90;;;;;;;;;;4957314;29;20213;-86
2021/10/22 07:44:23;;;;;;;15.90;12.57;;;;;;;;;;4957227;29;20194;-86
2021/10/22 07:46:50;;;;;;;13.93;12.53;;;;;;;;;;4956944;29;20726;-86
2021/10/22 07:49:18;;;;;;;13.23;12.03;;;;;;;;;;4957234;29;20225;-86
2021/10/22 07:51:45;;;;;;;12.57;11.20;;;;;;;;;;4957097;29;20807;-86
2021/10/22 07:54:14;;;;;;;12.67;11.43;;;;;;;;;;4957137;29;20194;-87
2021/10/22 07:56:43;;;;;;;13.07;11.67;;;;;;;;;;4956936;29;20249;-86
2021/10/22 07:59:11;;;;;;;12.73;11.43;;;;;;;;;;4957492;29;20733;-86
2021/10/22 08:01:39;;;;;;;13.23;11.73;;;;;;;;;;4957047;29;20289;-87
2021/10/22 08:04:06;;;;;;;19.73;12.43;;;;;;;;;;4956853;29;20575;-86
2021/10/22 08:06:36;;;;;;;14.97;11.73;;;;;;;;;;4957332;29;20308;-88
2021/10/22 08:09:03;;;;;;;15.40;13.03;;;;;;;;;;4957014;29;20288;-87
2021/10/22 08:11:32;;;;;;;14.13;12.70;;;;;;;;;;4957121;29;20194;-87
2021/10/22 08:14:00;;;;;;;13.50;12.17;;;;;;;;;;4957119;29;20201;-87
2021/10/22 08:16:28;;;;;;;15.40;13.87;;;;;;;;;;4956820;29;20289;-87
2021/10/22 08:18:55;;;;;;;14.00;11.83;;;;;;;;;;4957245;29;20639;-87
2021/10/22 08:21:34;;;;;;;14.17;12.67;;;;;;;;;;4957022;29;20737;-89
2021/10/22 08:24:02;;;;;;;23.53;18.20;;;;;;;;;;4957542;29;20567;-87
2021/10/22 08:26:29;;;;;;;21.60;17.23;;;;;;;;;;4956851;29;20230;-88
2021/10/22 08:28:58;;;;;;;13.80;12.13;;;;;;;;;;4956593;28;20206;-87
2021/10/22 08:31:27;;;;;;;13.37;11.60;;;;;;;;;;4957203;29;20327;-88
2021/10/22 08:33:55;;;;;;;12.50;11.27;;;;;;;;;;4956910;29;20221;-88
2021/10/22 08:36:22;;;;;;;13.60;12.20;;;;;;;;;;4957476;29;20216;-88
2021/10/22 08:38:50;;;;;;;14.03;11.13;;;;;;;;;;4956733;29;20201;-88
2021/10/22 08:41:18;;;;;;;11.70;10.60;;;;;;;;;;4957106;29;20205;-88
2021/10/22 08:43:45;;;;;;;12.87;11.37;;;;;;;;;;4956847;29;20632;-88
2021/10/22 08:46:17;;;;;;;13.87;10.50;;;;;;;;;;4956595;29;20234;-88
2021/10/22 08:48:44;;;;;;;15.07;10.57;;;;;;;;;;4956998;29;20206;-88
2021/10/22 08:51:18;;;;;;;14.83;10.77;;;;;;;;;;4956452;29;20241;-88
2021/10/22 08:53:45;;;;;;;15.10;10.60;;;;;;;;;;4956849;29;20620;-88
2021/10/22 08:56:12;;;;;;;11.03;10.10;;;;;;;;;;4956266;29;20205;-87
2021/10/22 08:58:41;;;;;;;15.30;13.80;;;;;;;;;;4956400;29;20640;-89
2021/10/22 09:01:08;;;;;;;11.80;10.70;;;;;;;;;;4956510;29;20220;-87
2021/10/22 09:03:39;;;;;;;16.50;13.73;;;;;;;;;;4956324;29;20686;-87
2021/10/22 09:06:12;;;;;;;19.00;16.77;;;;;;;;;;4956638;29;20566;-87
2021/10/22 09:08:41;;;;;;;22.37;18.93;;;;;;;;;;4956147;29;20281;-87
2021/10/22 09:11:23;;;;;;;23.70;18.37;;;;;;;;;;4956115;29;20198;-89
2021/10/22 09:14:04;;;;;;;22.43;18.07;;;;;;;;;;4956725;29;20209;-88
2021/10/22 09:16:32;;;;;;;21.60;19.27;;;;;;;;;;4956148;29;20253;-88
2021/10/22 09:19:02;;;;;;;20.07;18.17;;;;;;;;;;4956257;29;20613;-88
2021/10/22 09:21:31;;;;;;;17.60;15.87;;;;;;;;;;4955834;29;20209;-88
2021/10/22 09:24:22;;;;;;;20.93;18.67;;;;;;;;;;4956133;29;20197;-88
2021/10/22 09:26:55;;;;;;;21.83;16.93;;;;;;;;;;4936977;29;20222;-88
2021/10/22 09:29:23;;;;;;;19.50;17.50;;;;;;;;;;4955611;28;20781;-88
2021/10/22 09:31:52;;;;;;;19.37;17.37;;;;;;;;;;4955872;29;20205;-89
2021/10/22 09:34:32;;;;;;;19.70;17.23;;;;;;;;;;4955982;29;20296;-88
2021/10/22 09:36:59;;;;;;;18.30;16.47;;;;;;;;;;4956234;29;20317;-88
2021/10/22 09:39:28;;;;;;;17.70;16.07;;;;;;;;;;4955641;29;20230;-87
2021/10/22 09:41:57;;;;;;;20.10;17.60;;;;;;;;;;4954783;28;20217;-87
2021/10/22 09:44:26;;;;;;;21.47;19.27;;;;;;;;;;4955940;29;20202;-88
2021/10/22 09:46:53;;;;;;;19.63;17.63;;;;;;;;;;4955511;29;20226;-88
2021/10/22 09:49:26;;;;;;;21.40;19.30;;;;;;;;;;4955492;29;20700;-88
2021/10/22 09:51:56;;;;;;;23.83;19.63;;;;;;;;;;4955444;29;20229;-88
2021/10/22 09:54:29;;;;;;;18.87;16.97;;;;;;;;;;4955364;29;20260;-89
2021/10/22 09:56:58;;;;;;;20.90;18.77;;;;;;;;;;4955514;29;20678;-88
2021/10/22 09:59:26;;;;;;;22.83;17.83;;;;;;;;;;4955281;29;20268;-88
2021/10/22 10:01:55;;;;;;;18.50;16.57;;;;;;;;;;4955308;29;20206;-88
2021/10/22 10:04:23;;;;;;;19.60;17.50;;;;;;;;;;4955298;29;20201;-89
2021/10/22 10:06:51;;;;;;;18.53;16.83;;;;;;;;;;4955318;29;20229;-89
2021/10/22 10:09:21;;;;;;;21.30;16.50;;;;;;;;;;4955687;29;20556;-88
2021/10/22 10:11:50;;;;;;;16.70;15.17;;;;;;;;;;4955698;29;20237;-88
2021/10/22 10:14:17;;;;;;;16.57;14.90;;;;;;;;;;4955217;29;20206;-88
2021/10/22 10:16:47;;;;;;;16.90;14.77;;;;;;;;;;4955389;29;20220;-89
2021/10/22 10:19:18;;;;;;;15.10;13.70;;;;;;;;;;4955086;29;20689;-88
2021/10/22 10:21:48;;;;;;;16.40;14.73;;;;;;;;;;4955044;29;20269;-88
2021/10/22 10:24:18;;;;;;;22.87;17.33;;;;;;;;;;4955475;29;20190;-88
2021/10/22 10:27:05;;;;;;;18.13;16.23;;;;;;;;;;4955637;29;20218;-89
2021/10/22 10:29:34;;;;;;;18.10;16.23;;;;;;;;;;4955122;28;20650;-89
2021/10/22 10:32:03;;;;;;;15.77;14.27;;;;;;;;;;4955064;29;20676;-90
2021/10/22 10:34:46;;;;;;;15.60;14.07;;;;;;;;;;4954935;29;20198;-89
2021/10/22 10:37:28;;;;;;;16.90;13.90;;;;;;;;;;4954895;29;20196;-89
2021/10/22 10:40:04;;;;;;;15.07;13.07;;;;;;;;;;4955131;29;20206;-89
2021/10/22 10:42:41;;;;;;;16.20;14.60;;;;;;;;;;4955131;29;20592;-89
2021/10/22 10:45:11;;;;;;;17.17;14.70;;;;;;;;;;4955112;29;20221;-89
2021/10/22 10:47:49;;;;;;;14.70;13.20;;;;;;;;;;4954544;29;20286;-90
2021/10/22 10:50:21;;;;;;;15.37;13.77;;;;;;;;;;4955240;29;20218;-90
2021/10/22 10:53:00;;;;;;;16.20;13.83;;;;;;;;;;4954613;29;20203;-89
2021/10/22 10:55:32;;;;;;;16.53;14.73;;;;;;;;;;4954894;29;20237;-89
2021/10/22 10:58:15;;;;;;;14.93;13.43;;;;;;;;;;4954917;29;20280;-90
2021/10/22 11:00:45;;;;;;;13.77;12.40;;;;;;;;;;4954651;29;20252;-89
2021/10/22 11:03:19;;;;;;;20.63;13.90;;;;;;;;;;4955017;29;20244;-90
2021/10/22 11:06:12;;;;;;;15.13;13.77;;;;;;;;;;4955009;29;20243;-89
2021/10/22 11:08:47;;;;;;;14.47;12.97;;;;;;;;;;4954550;29;20308;-90
2021/10/22 11:11:29;;;;;;;16.87;15.27;;;;;;;;;;4955051;29;20197;-90
2021/10/22 11:14:14;;;;;;;15.47;14.17;;;;;;;;;;4955147;29;20317;-90
2021/10/22 11:17:00;;;;;;;15.07;13.50;;;;;;;;;;4952239;28;20248;-90
2021/10/22 11:19:33;;;;;;;14.60;12.77;;;;;;;;;;4951349;29;20679;-89
2021/10/22 11:22:03;;;;;;;13.70;12.47;;;;;;;;;;4954783;29;20190;-89
2021/10/22 11:24:31;;;;;;;13.87;12.27;;;;;;;;;;4954694;29;20201;-90
2021/10/22 11:27:01;;;;;;;12.40;11.13;;;;;;;;;;4954263;29;20280;-89
2021/10/22 11:29:31;;;;;;;13.83;12.43;;;;;;;;;;4954741;29;20832;-89
2021/10/22 11:32:00;;;;;;;14.83;11.23;;;;;;;;;;4954579;29;20205;-90
2021/10/22 11:34:29;;;;;;;12.77;11.07;;;;;;;;;;4954659;29;20308;-89
2021/10/22 11:37:01;;;;;;;12.33;11.13;;;;;;;;;;4954592;29;20204;-89
2021/10/22 11:39:30;;;;;;;11.70;10.63;;;;;;;;;;4954949;29;20210;-90
2021/10/22 11:42:11;;;;;;;12.23;10.70;;;;;;;;;;4954123;29;20202;-89
2021/10/22 11:44:41;;;;;;;13.10;11.70;;;;;;;;;;4954403;29;20276;-90
2021/10/22 11:47:10;;;;;;;13.37;11.47;;;;;;;;;;4954361;29;20312;-89
2021/10/22 11:49:38;;;;;;;11.63;10.63;;;;;;;;;;4954215;29;20587;-89
2021/10/22 11:52:08;;;;;;;14.30;10.50;;;;;;;;;;4954295;29;20225;-89
2021/10/22 11:54:36;;;;;;;11.07;9.70;;;;;;;;;;4954673;29;20237;-91
2021/10/22 11:57:05;;;;;;;12.47;10.63;;;;;;;;;;4954383;29;20253;-90
2021/10/22 11:59:33;;;;;;;10.40;9.50;;;;;;;;;;4954598;29;20213;-90
2021/10/22 12:02:08;;;;;;;10.43;9.53;;;;;;;;;;4954514;29;20234;-89
2021/10/22 12:04:36;;;;;;;18.13;10.20;;;;;;;;;;4954741;28;20284;-89
2021/10/22 12:07:05;;;;;;;11.17;10.17;;;;;;;;;;4957426;29;20232;-89
2021/10/22 12:09:34;;;;;;;18.53;14.13;;;;;;;;;;4957418;29;20198;-90
2021/10/22 12:12:04;;;;;;;12.03;10.93;;;;;;;;;;4957577;29;20194;-90
2021/10/22 12:14:39;;;;;;;12.63;9.87;;;;;;;;;;4957784;29;20198;-89
2021/10/22 12:17:11;;;;;;;10.33;9.43;;;;;;;;;;4957527;29;20237;-89
2021/10/22 12:19:40;;;;;;;12.00;10.73;;;;;;;;;;4957331;29;20280;-89
2021/10/22 12:22:07;;;;;;;12.30;10.90;;;;;;;;;;4957260;29;20202;-89
2021/10/22 12:24:49;;;;;;;11.67;10.53;;;;;;;;;;4957201;29;20194;-90
2021/10/22 12:27:17;;;;;;;10.80;9.73;;;;;;;;;;4957122;29;20209;-90
2021/10/22 12:29:59;;;;;;;11.20;10.10;;;;;;;;;;4957079;29;20238;-90
2021/10/22 12:32:40;;;;;;;10.73;9.70;;;;;;;;;;4957051;29;20276;-90
2021/10/22 12:35:12;;;;;;;9.30;8.30;;;;;;;;;;4956963;29;20277;-90
2021/10/22 12:37:41;;;;;;;9.50;8.53;;;;;;;;;;4957600;29;20619;-89
2021/10/22 12:40:22;;;;;;;8.70;7.80;;;;;;;;;;4957307;29;20682;-90
2021/10/22 12:43:12;;;;;;;11.60;9.17;;;;;;;;;;4957116;29;20244;-90
2021/10/22 12:46:03;;;;;;;9.80;8.40;;;;;;;;;;4957006;29;20257;-90
2021/10/22 12:48:33;;;;;;;9.97;9.03;;;;;;;;;;4952139;29;20234;-90
2021/10/22 12:51:09;;;;;;;11.10;7.77;;;;;;;;;;4956747;29;20655;-90
2021/10/22 12:53:39;;;;;;;9.57;8.23;;;;;;;;;;4956944;29;20194;-90
2021/10/22 12:56:13;;;;;;;10.27;9.10;;;;;;;;;;4956654;29;20193;-90
2021/10/22 12:58:41;;;;;;;9.43;8.37;;;;;;;;;;4956713;29;20241;-89
2021/10/22 13:01:12;;;;;;;7.80;7.20;;;;;;;;;;4956854;29;20359;-89
2021/10/22 13:03:42;;;;;;;8.63;7.80;;;;;;;;;;4956838;29;20577;-91
2021/10/22 13:06:12;;;;;;;8.40;7.57;;;;;;;;;;4956488;29;20194;-88
2021/10/22 13:08:53;;;;;;;14.33;10.33;;;;;;;;;;4955969;29;20229;-88
2021/10/22 13:11:29;;;;;;;9.57;8.40;;;;;;;;;;4956617;29;20249;-88
2021/10/22 13:14:18;;;;;;;11.67;9.93;;;;;;;;;;4956561;29;20570;-91
2021/10/22 13:22:23;;;;;;;9.80;8.90;;;;;;;;;;4885228;29;20352;-91
2021/10/22 13:24:53;;;;;;;8.97;8.10;;;;;;;;;;4956292;29;20292;-90
2021/10/22 13:27:21;;;;;;;12.03;9.10;;;;;;;;;;4956106;29;20245;-89
2021/10/22 13:29:52;;;;;;;8.73;7.97;;;;;;;;;;4956030;29;20238;-88
2021/10/22 13:32:19;;;;;;;10.90;9.80;;;;;;;;;;4956049;29;20643;-90
2021/10/22 13:34:48;;;;;;;10.50;9.43;;;;;;;;;;4955997;29;20213;-89
2021/10/22 13:37:16;;;;;;;12.40;9.97;;;;;;;;;;4956273;29;20263;-90
2021/10/22 13:39:43;;;;;;;11.73;10.53;;;;;;;;;;4955881;29;20280;-91
2021/10/22 13:42:11;;;;;;;11.70;10.13;;;;;;;;;;4955783;29;20219;-91
2021/10/22 13:44:38;;;;;;;10.90;9.93;;;;;;;;;;4956157;29;20645;-92
2021/10/22 13:47:08;;;;;;;14.43;10.87;;;;;;;;;;4955685;29;20221;-91
2021/10/22 13:49:36;;;;;;;10.83;9.73;;;;;;;;;;4956484;29;20605;-91
2021/10/22 13:52:05;;;;;;;13.80;10.53;;;;;;;;;;4955558;29;20198;-90
2021/10/22 13:54:35;;;;;;;12.43;10.10;;;;;;;;;;4956191;29;20201;-91
2021/10/22 13:57:03;;;;;;;10.50;9.60;;;;;;;;;;4956558;29;20217;-91
2021/10/22 13:59:30;;;;;;;15.23;13.83;;;;;;;;;;4955560;29;20198;-91
2021/10/22 14:01:58;;;;;;;13.53;11.50;;;;;;;;;;4955713;29;20237;-90
2021/10/22 14:04:25;;;;;;;12.57;9.20;;;;;;;;;;4955449;29;20201;-90
2021/10/22 14:06:52;;;;;;;11.47;9.33;;;;;;;;;;4955136;29;20253;-90
2021/10/22 14:09:21;;;;;;;10.37;9.47;;;;;;;;;;4955069;29;20265;-90
2021/10/22 14:11:53;;;;;;;11.13;9.97;;;;;;;;;;4955324;29;20221;-90
2021/10/22 14:14:28;;;;;;;9.27;8.17;;;;;;;;;;4955382;29;20289;-91
2021/10/22 14:17:04;;;;;;;14.90;10.40;;;;;;;;;;4953620;29;20233;-90
2021/10/22 14:19:53;;;;;;;13.73;9.13;;;;;;;;;;4948906;29;20224;-88
2021/10/22 14:30:35;;;;;;;11.53;10.43;;;;;;;;;;4955212;28;20773;-89
2021/10/22 14:33:02;;;;;;;21.67;18.07;;;;;;;;;;4954903;29;20202;-90
2021/10/22 14:35:29;;;;;;;16.30;14.40;;;;;;;;;;4954901;29;20241;-89
2021/10/22 14:37:57;;;;;;;13.33;12.13;;;;;;;;;;4954806;29;20202;-91
2021/10/22 14:40:26;;;;;;;16.30;12.77;;;;;;;;;;4954884;29;20261;-90
2021/10/22 14:42:55;;;;;;;10.27;9.37;;;;;;;;;;4954784;29;20201;-90
2021/10/22 14:45:26;;;;;;;12.70;8.83;;;;;;;;;;4954400;29;20209;-88
2021/10/22 14:47:57;;;;;;;10.13;9.13;;;;;;;;;;4954325;29;20272;-89